createdAt,value
2017-01-17T00:00:06.489Z,89.36
2017-01-17T00:00:47.160Z,90.02
2017-01-17T00:01:28.811Z,90.02
2017-01-17T00:02:09.484Z,90.02
2017-01-17T00:02:50.107Z,89.26
2017-01-17T00:03:30.678Z,89.17
2017-01-17T00:04:11.336Z,89.54
2017-01-17T00:04:51.969Z,89.54
2017-01-17T00:05:32.549Z,89.36
2017-01-17T00:06:13.186Z,89.26
2017-01-17T00:06:53.821Z,89.83
2017-01-17T00:07:34.390Z,89.54
2017-01-17T00:08:15.048Z,89.83
2017-01-17T00:08:55.623Z,89.54
2017-01-17T00:09:36.231Z,89.92
2017-01-17T00:10:16.797Z,90.02
2017-01-17T00:10:57.466Z,89.26
2017-01-17T00:11:38.026Z,89.83
2017-01-17T00:12:18.633Z,89.36
2017-01-17T00:12:59.285Z,89.83
2017-01-17T00:13:39.940Z,89.54
2017-01-17T00:14:20.606Z,89.54
2017-01-17T00:15:01.263Z,89.92
2017-01-17T00:15:41.897Z,89.64
2017-01-17T00:16:22.557Z,89.64
2017-01-17T00:17:03.205Z,89.45
2017-01-17T00:17:43.773Z,89.36
2017-01-17T00:18:24.420Z,89.54
2017-01-17T00:19:05.025Z,89.45
2017-01-17T00:19:45.609Z,89.54
2017-01-17T00:20:26.178Z,89.26
2017-01-17T00:21:06.812Z,89.83
2017-01-17T00:21:47.417Z,90.02
2017-01-17T00:22:28.022Z,90.02
2017-01-17T00:23:08.570Z,90.11
2017-01-17T00:23:49.237Z,89.26
2017-01-17T00:24:29.840Z,90.02
2017-01-17T00:25:10.392Z,90.11
2017-01-17T00:25:50.940Z,90.21
2017-01-17T00:26:31.565Z,90.21
2017-01-17T00:27:12.245Z,90.02
2017-01-17T00:27:52.805Z,90.11
2017-01-17T00:28:33.400Z,90.02
2017-01-17T00:29:14.029Z,90.02
2017-01-17T00:29:54.588Z,90.21
2017-01-17T00:30:35.256Z,90.02
2017-01-17T00:31:15.905Z,90.11
2017-01-17T00:31:56.485Z,90.3
2017-01-17T00:32:37.115Z,90.16
2017-01-17T00:33:17.762Z,89.88
2017-01-17T00:33:58.467Z,90.07
2017-01-17T00:34:39.066Z,90.64
2017-01-17T00:35:20.403Z,90.45
2017-01-17T00:36:00.989Z,90.26
2017-01-17T00:36:41.660Z,90.45
2017-01-17T00:37:22.281Z,90.73
2017-01-17T00:38:02.946Z,90.64
2017-01-17T00:38:43.524Z,90.45
2017-01-17T00:39:24.131Z,90.54
2017-01-17T00:40:04.783Z,90.26
2017-01-17T00:40:45.344Z,91.01
2017-01-17T00:41:26.048Z,90.73
2017-01-17T00:42:06.658Z,90.07
2017-01-17T00:42:47.298Z,90.26
2017-01-17T00:43:27.884Z,90.26
2017-01-17T00:44:08.518Z,89.88
2017-01-17T00:44:49.208Z,90.35
2017-01-17T00:45:29.843Z,90.35
2017-01-17T00:46:10.504Z,90.45
2017-01-17T00:46:51.134Z,90.45
2017-01-17T00:47:31.777Z,90.45
2017-01-17T00:48:12.395Z,90.73
2017-01-17T00:48:53.071Z,90.82
2017-01-17T00:49:33.640Z,90.45
2017-01-17T00:50:14.312Z,90.45
2017-01-17T00:50:55.032Z,90.64
2017-01-17T00:51:35.693Z,90.45
2017-01-17T00:52:16.267Z,90.54
2017-01-17T00:52:56.935Z,91.01
2017-01-17T00:53:38.251Z,90.82
2017-01-17T00:54:18.826Z,91.01
2017-01-17T00:54:59.480Z,90.92
2017-01-17T00:55:40.140Z,90.92
2017-01-17T00:56:21.822Z,90.64
2017-01-17T00:57:03.497Z,91.3
2017-01-17T00:57:44.121Z,90.92
2017-01-17T00:58:24.719Z,91.01
2017-01-17T00:59:05.337Z,91.01
2017-01-17T00:59:46.046Z,90.92
2017-01-17T01:00:26.641Z,90.82
2017-01-17T01:01:07.192Z,90.92
2017-01-17T01:01:47.840Z,91.11
2017-01-17T01:02:28.446Z,91.11
2017-01-17T01:03:09.001Z,90.92
2017-01-17T01:03:49.752Z,91.2
2017-01-17T01:04:31.356Z,91.11
2017-01-17T01:05:11.993Z,90.92
2017-01-17T01:05:52.586Z,90.92
2017-01-17T01:06:33.189Z,91.3
2017-01-17T01:07:13.779Z,91.11
2017-01-17T01:07:54.341Z,91.3
2017-01-17T01:08:35.018Z,91.2
2017-01-17T01:09:15.599Z,91.3
2017-01-17T01:09:56.280Z,91.86
2017-01-17T01:10:36.843Z,91.49
2017-01-17T01:11:17.518Z,91.39
2017-01-17T01:11:58.116Z,91.3
2017-01-17T01:12:38.797Z,91.86
2017-01-17T01:13:19.462Z,92.05
2017-01-17T01:14:00.312Z,91.86
2017-01-17T01:14:41.146Z,91.86
2017-01-17T01:15:21.818Z,91.77
2017-01-17T01:16:02.530Z,91.77
2017-01-17T01:16:43.112Z,91.86
2017-01-17T01:17:23.770Z,91.86
2017-01-17T01:18:04.350Z,92.05
2017-01-17T01:18:45.015Z,91.58
2017-01-17T01:19:25.627Z,92.05
2017-01-17T01:20:06.217Z,92.05
2017-01-17T01:20:46.855Z,91.49
2017-01-17T01:21:27.424Z,92.14
2017-01-17T01:22:08.080Z,92.14
2017-01-17T01:22:48.686Z,92.14
2017-01-17T01:23:29.237Z,91.67
2017-01-17T01:24:09.939Z,91.77
2017-01-17T01:24:50.549Z,91.67
2017-01-17T01:25:31.107Z,91.77
2017-01-17T01:26:12.692Z,91.86
2017-01-17T01:26:53.316Z,91.77
2017-01-17T01:27:34.025Z,91.86
2017-01-17T01:28:14.640Z,91.86
2017-01-17T01:28:55.244Z,91.96
2017-01-17T01:29:35.832Z,91.86
2017-01-17T01:30:16.400Z,91.49
2017-01-17T01:30:57.106Z,92.43
2017-01-17T01:31:37.794Z,92.14
2017-01-17T01:32:18.445Z,92.14
2017-01-17T01:32:59.090Z,92.14
2017-01-17T01:33:40.768Z,92.24
2017-01-17T01:34:21.426Z,92.14
2017-01-17T01:35:02.088Z,92.24
2017-01-17T01:35:42.735Z,92.05
2017-01-17T01:36:23.395Z,91.86
2017-01-17T01:37:04.051Z,92.14
2017-01-17T01:37:44.632Z,92.43
2017-01-17T01:38:26.306Z,92.05
2017-01-17T01:39:06.868Z,92.05
2017-01-17T01:39:47.488Z,91.86
2017-01-17T01:40:28.158Z,92.14
2017-01-17T01:41:08.786Z,92.43
2017-01-17T01:41:49.449Z,92.71
2017-01-17T01:42:30.122Z,92.8
2017-01-17T01:43:11.718Z,92.71
2017-01-17T01:43:52.308Z,92.61
2017-01-17T01:44:32.901Z,92.61
2017-01-17T01:45:13.534Z,92.71
2017-01-17T01:45:54.236Z,92.71
2017-01-17T01:46:35.842Z,92.71
2017-01-17T01:47:16.405Z,92.61
2017-01-17T01:47:57.004Z,92.61
2017-01-17T01:48:37.703Z,92.71
2017-01-17T01:49:18.271Z,92.61
2017-01-17T01:50:00.028Z,92.71
2017-01-17T01:50:41.686Z,92.52
2017-01-17T01:51:23.387Z,92.52
2017-01-17T01:52:03.964Z,92.43
2017-01-17T01:52:44.577Z,92.43
2017-01-17T01:53:25.244Z,92.61
2017-01-17T01:54:05.806Z,92.52
2017-01-17T01:54:46.506Z,92.61
2017-01-17T01:55:27.199Z,92.33
2017-01-17T01:56:07.773Z,92.8
2017-01-17T01:56:49.438Z,92.61
2017-01-17T01:57:30.070Z,92.8
2017-01-17T01:58:10.639Z,92.61
2017-01-17T01:58:51.314Z,92.52
2017-01-17T01:59:32.954Z,92.71
2017-01-17T02:00:13.540Z,92.52
2017-01-17T02:00:54.209Z,92.43
2017-01-17T02:01:34.819Z,92.71
2017-01-17T02:02:15.360Z,92.14
2017-01-17T02:02:56.977Z,92.24
2017-01-17T02:03:37.653Z,92.8
2017-01-17T02:04:18.294Z,92.99
2017-01-17T02:04:58.952Z,92.8
2017-01-17T02:05:39.611Z,92.9
2017-01-17T02:06:20.265Z,93.09
2017-01-17T02:07:00.922Z,92.71
2017-01-17T02:07:41.573Z,92.9
2017-01-17T02:08:22.188Z,92.99
2017-01-17T02:09:02.835Z,92.71
2017-01-17T02:09:43.492Z,92.61
2017-01-17T02:10:24.141Z,93.56
2017-01-17T02:11:05.810Z,93.47
2017-01-17T02:11:46.480Z,93.56
2017-01-17T02:12:27.131Z,93.09
2017-01-17T02:13:07.819Z,93.28
2017-01-17T02:13:48.403Z,93.28
2017-01-17T02:14:28.984Z,93.47
2017-01-17T02:15:09.562Z,93.09
2017-01-17T02:15:50.265Z,93.18
2017-01-17T02:16:30.921Z,93.18
2017-01-17T02:17:11.515Z,93.37
2017-01-17T02:17:53.193Z,93.37
2017-01-17T02:18:33.845Z,93.09
2017-01-17T02:19:14.480Z,93.09
2017-01-17T02:19:55.101Z,92.9
2017-01-17T02:20:35.791Z,93.09
2017-01-17T02:21:16.437Z,93.18
2017-01-17T02:21:57.079Z,93.18
2017-01-17T02:22:37.650Z,93.09
2017-01-17T02:23:18.292Z,93.37
2017-01-17T02:23:58.944Z,93.28
2017-01-17T02:24:39.600Z,93.18
2017-01-17T02:25:21.276Z,93.09
2017-01-17T02:26:01.927Z,93.18
2017-01-17T02:26:43.602Z,93.28
2017-01-17T02:27:24.258Z,93.37
2017-01-17T02:28:04.975Z,93.37
2017-01-17T02:28:45.556Z,93.47
2017-01-17T02:29:26.217Z,93.66
2017-01-17T02:30:06.877Z,93.56
2017-01-17T02:30:47.525Z,93.28
2017-01-17T02:31:28.178Z,93.28
2017-01-17T02:32:08.819Z,93.56
2017-01-17T02:32:49.467Z,93.56
2017-01-17T02:33:30.160Z,93.66
2017-01-17T02:34:10.775Z,93.75
2017-01-17T02:34:51.351Z,93.56
2017-01-17T02:35:31.976Z,93.56
2017-01-17T02:36:14.307Z,93.47
2017-01-17T02:36:54.904Z,93.56
2017-01-17T02:37:35.650Z,93.66
2017-01-17T02:38:16.249Z,93.66
2017-01-17T02:38:56.877Z,93.66
2017-01-17T02:39:37.564Z,93.66
2017-01-17T02:40:19.253Z,93.28
2017-01-17T02:40:59.874Z,93.18
2017-01-17T02:41:40.549Z,93.37
2017-01-17T02:42:21.203Z,93.47
2017-01-17T02:43:01.824Z,93.56
2017-01-17T02:43:43.551Z,93.18
2017-01-17T02:44:24.211Z,93.28
2017-01-17T02:45:04.840Z,93.37
2017-01-17T02:45:45.490Z,93.37
2017-01-17T02:46:26.120Z,93.37
2017-01-17T02:47:06.772Z,93.47
2017-01-17T02:47:48.463Z,93.75
2017-01-17T02:48:30.129Z,93.84
2017-01-17T02:49:11.810Z,93.84
2017-01-17T02:49:52.455Z,93.84
2017-01-17T02:50:33.395Z,94.03
2017-01-17T02:51:13.989Z,93.94
2017-01-17T02:51:54.654Z,94.13
2017-01-17T02:52:35.401Z,93.94
2017-01-17T02:53:16.075Z,94.13
2017-01-17T02:53:56.664Z,94.13
2017-01-17T02:54:37.254Z,94.03
2017-01-17T02:55:18.953Z,93.94
2017-01-17T02:55:59.625Z,93.84
2017-01-17T02:56:40.198Z,94.03
2017-01-17T02:57:20.757Z,93.84
2017-01-17T02:58:01.443Z,94.03
2017-01-17T02:58:42.041Z,94.03
2017-01-17T02:59:22.613Z,94.03
2017-01-17T03:00:03.272Z,93.84
2017-01-17T03:00:43.846Z,93.94
2017-01-17T03:01:24.455Z,93.84
2017-01-17T03:02:05.536Z,93.84
2017-01-17T03:02:46.178Z,94.03
2017-01-17T03:03:26.751Z,93.75
2017-01-17T03:04:07.419Z,93.84
2017-01-17T03:04:47.994Z,93.84
2017-01-17T03:05:28.676Z,93.56
2017-01-17T03:06:09.326Z,93.84
2017-01-17T03:06:49.923Z,93.47
2017-01-17T03:07:30.528Z,93.84
2017-01-17T03:08:11.155Z,93.84
2017-01-17T03:08:51.704Z,93.37
2017-01-17T03:09:32.270Z,93.09
2017-01-17T03:10:12.871Z,94.13
2017-01-17T03:10:53.473Z,93.37
2017-01-17T03:11:34.051Z,93.56
2017-01-17T03:12:14.684Z,93.47
2017-01-17T03:12:55.282Z,93.28
2017-01-17T03:13:35.889Z,93.18
2017-01-17T03:14:16.577Z,93.66
2017-01-17T03:14:57.192Z,93.56
2017-01-17T03:15:37.856Z,93.75
2017-01-17T03:16:18.493Z,93.56
2017-01-17T03:16:59.152Z,93.66
2017-01-17T03:17:39.801Z,93.28
2017-01-17T03:18:20.435Z,93.66
2017-01-17T03:19:00.989Z,93.56
2017-01-17T03:19:41.675Z,93.84
2017-01-17T03:20:22.262Z,93.09
2017-01-17T03:21:02.845Z,93.37
2017-01-17T03:21:43.415Z,93.28
2017-01-17T03:22:24.104Z,93.09
2017-01-17T03:23:04.753Z,93.09
2017-01-17T03:23:45.424Z,93.18
2017-01-17T03:24:26.028Z,93.28
2017-01-17T03:25:06.700Z,93.28
2017-01-17T03:25:47.250Z,93.28
2017-01-17T03:26:27.851Z,93.56
2017-01-17T03:27:08.515Z,93.47
2017-01-17T03:27:49.182Z,93.28
2017-01-17T03:28:29.823Z,92.9
2017-01-17T03:29:10.463Z,92.61
2017-01-17T03:29:51.128Z,92.71
2017-01-17T03:30:31.760Z,93.09
2017-01-17T03:31:12.469Z,92.99
2017-01-17T03:31:53.073Z,92.8
2017-01-17T03:32:33.730Z,92.9
2017-01-17T03:33:14.377Z,92.8
2017-01-17T03:33:54.944Z,92.9
2017-01-17T03:34:35.590Z,92.52
2017-01-17T03:35:16.227Z,92.43
2017-01-17T03:35:56.791Z,92.24
2017-01-17T03:36:37.458Z,92.24
2017-01-17T03:37:18.085Z,92.61
2017-01-17T03:37:58.672Z,92.52
2017-01-17T03:38:39.310Z,92.71
2017-01-17T03:39:19.964Z,92.52
2017-01-17T03:40:00.547Z,92.43
2017-01-17T03:40:41.233Z,92.8
2017-01-17T03:41:22.411Z,92.8
2017-01-17T03:42:03.015Z,92.8
2017-01-17T03:42:43.691Z,92.61
2017-01-17T03:43:24.375Z,92.52
2017-01-17T03:44:04.927Z,92.43
2017-01-17T03:44:45.611Z,92.52
2017-01-17T03:45:26.174Z,92.43
2017-01-17T03:46:06.781Z,92.43
2017-01-17T03:46:47.355Z,92.71
2017-01-17T03:47:27.995Z,92.71
2017-01-17T03:48:08.589Z,92.71
2017-01-17T03:48:50.269Z,92.52
2017-01-17T03:49:30.887Z,92.43
2017-01-17T03:50:11.536Z,92.47
2017-01-17T03:50:52.123Z,92.38
2017-01-17T03:51:32.721Z,92.47
2017-01-17T03:52:13.283Z,92.85
2017-01-17T03:52:53.930Z,92.76
2017-01-17T03:53:34.579Z,92.76
2017-01-17T03:54:15.235Z,92.76
2017-01-17T03:54:55.908Z,92.47
2017-01-17T03:55:36.557Z,92.38
2017-01-17T03:56:17.199Z,92.29
2017-01-17T03:56:57.850Z,92.38
2017-01-17T03:57:38.500Z,92.85
2017-01-17T03:58:19.147Z,93.04
2017-01-17T03:58:59.720Z,93.04
2017-01-17T03:59:40.385Z,92.95
2017-01-17T04:00:21.003Z,92.95
2017-01-17T04:01:01.576Z,92.66
2017-01-17T04:01:42.221Z,92.66
2017-01-17T04:02:22.856Z,93.13
2017-01-17T04:03:03.417Z,92.76
2017-01-17T04:03:44.094Z,92.76
2017-01-17T04:04:24.740Z,92.76
2017-01-17T04:05:05.376Z,93.51
2017-01-17T04:05:46.044Z,92.76
2017-01-17T04:06:26.615Z,93.32
2017-01-17T04:07:07.268Z,93.42
2017-01-17T04:07:47.939Z,93.42
2017-01-17T04:08:28.544Z,93.04
2017-01-17T04:09:09.117Z,93.23
2017-01-17T04:09:49.765Z,93.23
2017-01-17T04:10:30.443Z,93.23
2017-01-17T04:11:11.038Z,93.23
2017-01-17T04:11:51.623Z,93.13
2017-01-17T04:12:32.269Z,93.42
2017-01-17T04:13:12.959Z,93.32
2017-01-17T04:13:53.660Z,93.42
2017-01-17T04:14:34.264Z,93.51
2017-01-17T04:15:14.899Z,93.42
2017-01-17T04:15:55.583Z,93.51
2017-01-17T04:16:36.223Z,93.51
2017-01-17T04:17:16.874Z,93.04
2017-01-17T04:17:57.428Z,93.13
2017-01-17T04:18:39.030Z,93.23
2017-01-17T04:19:19.679Z,93.23
2017-01-17T04:20:00.242Z,92.95
2017-01-17T04:20:40.906Z,93.04
2017-01-17T04:21:21.553Z,93.04
2017-01-17T04:22:02.129Z,92.85
2017-01-17T04:22:42.679Z,93.23
2017-01-17T04:23:23.260Z,93.32
2017-01-17T04:24:03.870Z,93.04
2017-01-17T04:24:44.527Z,93.23
2017-01-17T04:25:25.176Z,93.51
2017-01-17T04:26:05.820Z,93.51
2017-01-17T04:26:46.499Z,93.47
2017-01-17T04:27:27.147Z,93.18
2017-01-17T04:28:07.797Z,93.09
2017-01-17T04:28:48.431Z,93.47
2017-01-17T04:29:28.998Z,93.37
2017-01-17T04:30:09.647Z,93.37
2017-01-17T04:30:50.290Z,93.47
2017-01-17T04:31:30.843Z,93.47
2017-01-17T04:32:11.501Z,93.56
2017-01-17T04:32:52.140Z,93.56
2017-01-17T04:33:32.871Z,93.37
2017-01-17T04:34:13.556Z,93.28
2017-01-17T04:34:54.226Z,93.28
2017-01-17T04:35:34.883Z,93.37
2017-01-17T04:36:15.522Z,93.94
2017-01-17T04:36:56.174Z,93.75
2017-01-17T04:37:36.741Z,94.13
2017-01-17T04:38:17.388Z,93.94
2017-01-17T04:38:58.021Z,93.56
2017-01-17T04:39:38.701Z,93.84
2017-01-17T04:40:19.333Z,94.41
2017-01-17T04:40:59.994Z,94.13
2017-01-17T04:41:40.642Z,93.94
2017-01-17T04:42:21.315Z,94.03
2017-01-17T04:43:01.941Z,94.51
2017-01-17T04:43:42.542Z,94.51
2017-01-17T04:44:23.141Z,94.79
2017-01-17T04:45:03.699Z,94.6
2017-01-17T04:45:44.376Z,94.51
2017-01-17T04:46:25.054Z,94.41
2017-01-17T04:47:05.647Z,94.79
2017-01-17T04:47:46.213Z,94.41
2017-01-17T04:48:26.882Z,94.41
2017-01-17T04:49:07.558Z,94.41
2017-01-17T04:49:48.184Z,94.6
2017-01-17T04:50:28.844Z,94.41
2017-01-17T04:51:09.472Z,94.32
2017-01-17T04:51:50.146Z,94.32
2017-01-17T04:52:30.794Z,94.41
2017-01-17T04:53:11.427Z,94.32
2017-01-17T04:53:52.003Z,94.6
2017-01-17T04:54:32.652Z,94.69
2017-01-17T04:55:13.206Z,94.22
2017-01-17T04:55:53.783Z,94.41
2017-01-17T04:56:34.400Z,94.41
2017-01-17T04:57:15.029Z,94.69
2017-01-17T04:57:55.613Z,94.32
2017-01-17T04:58:36.207Z,94.6
2017-01-17T04:59:16.743Z,94.69
2017-01-17T04:59:57.344Z,94.79
2017-01-17T05:00:37.987Z,94.69
2017-01-17T05:01:18.561Z,94.32
2017-01-17T05:01:59.213Z,94.32
2017-01-17T05:02:39.842Z,94.32
2017-01-17T05:03:20.402Z,94.41
2017-01-17T05:04:01.052Z,94.79
2017-01-17T05:04:41.619Z,94.41
2017-01-17T05:05:22.291Z,94.79
2017-01-17T05:06:02.965Z,94.6
2017-01-17T05:06:43.564Z,94.03
2017-01-17T05:07:24.153Z,94.6
2017-01-17T05:08:04.782Z,94.03
2017-01-17T05:08:45.422Z,94.69
2017-01-17T05:09:26.094Z,94.51
2017-01-17T05:10:06.769Z,94.41
2017-01-17T05:10:47.392Z,94.41
2017-01-17T05:11:28.036Z,94.22
2017-01-17T05:12:08.701Z,94.88
2017-01-17T05:12:49.360Z,94.88
2017-01-17T05:13:30.014Z,94.03
2017-01-17T05:14:10.657Z,94.69
2017-01-17T05:14:51.317Z,94.69
2017-01-17T05:15:31.975Z,94.41
2017-01-17T05:16:12.604Z,94.13
2017-01-17T05:16:53.272Z,94.6
2017-01-17T05:17:33.929Z,94.41
2017-01-17T05:18:14.575Z,94.69
2017-01-17T05:18:55.215Z,94.6
2017-01-17T05:19:35.881Z,94.79
2017-01-17T05:20:16.534Z,95.17
2017-01-17T05:20:57.187Z,94.79
2017-01-17T05:21:37.829Z,94.88
2017-01-17T05:22:18.479Z,95.26
2017-01-17T05:22:59.142Z,94.98
2017-01-17T05:23:39.734Z,94.98
2017-01-17T05:24:20.331Z,95.17
2017-01-17T05:25:00.907Z,95.45
2017-01-17T05:25:42.577Z,94.98
2017-01-17T05:26:23.169Z,95.07
2017-01-17T05:27:03.857Z,94.98
2017-01-17T05:27:44.422Z,95.17
2017-01-17T05:28:25.075Z,95.07
2017-01-17T05:29:05.715Z,95.26
2017-01-17T05:29:46.298Z,95.26
2017-01-17T05:30:26.951Z,95.07
2017-01-17T05:31:07.620Z,95.83
2017-01-17T05:31:48.228Z,95.73
2017-01-17T05:32:28.813Z,95.54
2017-01-17T05:33:09.461Z,95.83
2017-01-17T05:33:50.100Z,95.54
2017-01-17T05:34:30.748Z,95.64
2017-01-17T05:35:11.410Z,95.64
2017-01-17T05:35:52.045Z,95.64
2017-01-17T05:36:32.724Z,95.64
2017-01-17T05:37:13.365Z,95.92
2017-01-17T05:37:54.019Z,95.64
2017-01-17T05:38:34.620Z,95.54
2017-01-17T05:39:15.341Z,95.54
2017-01-17T05:39:56.149Z,95.83
2017-01-17T05:40:36.738Z,95.83
2017-01-17T05:41:17.323Z,95.54
2017-01-17T05:41:57.924Z,95.45
2017-01-17T05:42:38.485Z,95.26
2017-01-17T05:43:19.144Z,95.73
2017-01-17T05:43:59.776Z,95.83
2017-01-17T05:44:40.348Z,95.54
2017-01-17T05:45:20.996Z,95.64
2017-01-17T05:46:01.629Z,95.64
2017-01-17T05:46:42.215Z,95.64
2017-01-17T05:47:22.906Z,95.26
2017-01-17T05:48:03.479Z,95.45
2017-01-17T05:48:44.139Z,95.64
2017-01-17T05:49:24.799Z,95.45
2017-01-17T05:50:05.447Z,95.36
2017-01-17T05:50:46.023Z,95.73
2017-01-17T05:51:26.671Z,95.73
2017-01-17T05:52:07.329Z,95.83
2017-01-17T05:52:47.971Z,95.73
2017-01-17T05:53:28.556Z,95.73
2017-01-17T05:54:09.154Z,95.54
2017-01-17T05:54:49.718Z,95.64
2017-01-17T05:55:30.360Z,95.45
2017-01-17T05:56:10.974Z,95.73
2017-01-17T05:56:51.560Z,96.01
2017-01-17T05:57:32.142Z,95.73
2017-01-17T05:58:12.787Z,95.64
2017-01-17T05:58:53.382Z,95.45
2017-01-17T05:59:33.931Z,95.45
2017-01-17T06:00:15.556Z,95.45
2017-01-17T06:00:56.142Z,95.73
2017-01-17T06:01:36.854Z,95.73
2017-01-17T06:02:17.413Z,95.64
2017-01-17T06:02:58.072Z,95.54
2017-01-17T06:03:38.676Z,95.54
2017-01-17T06:04:19.293Z,95.73
2017-01-17T06:04:59.938Z,95.54
2017-01-17T06:05:40.560Z,95.45
2017-01-17T06:06:21.222Z,95.45
2017-01-17T06:07:01.871Z,95.26
2017-01-17T06:07:42.528Z,95.64
2017-01-17T06:08:23.090Z,95.92
2017-01-17T06:09:03.732Z,95.64
2017-01-17T06:09:44.395Z,95.54
2017-01-17T06:10:25.079Z,95.83
2017-01-17T06:11:05.712Z,95.83
2017-01-17T06:11:46.342Z,95.64
2017-01-17T06:12:27.007Z,95.64
2017-01-17T06:13:07.662Z,95.64
2017-01-17T06:13:48.314Z,95.64
2017-01-17T06:14:28.969Z,95.45
2017-01-17T06:15:09.606Z,95.54
2017-01-17T06:15:50.282Z,95.83
2017-01-17T06:16:30.924Z,95.83
2017-01-17T06:17:11.592Z,95.83
2017-01-17T06:17:52.251Z,95.26
2017-01-17T06:18:32.827Z,95.26
2017-01-17T06:19:13.423Z,94.88
2017-01-17T06:19:53.959Z,95.64
2017-01-17T06:20:34.650Z,95.45
2017-01-17T06:21:15.226Z,95.54
2017-01-17T06:21:55.830Z,95.45
2017-01-17T06:22:36.378Z,95.73
2017-01-17T06:23:17.053Z,95.83
2017-01-17T06:23:57.708Z,95.83
2017-01-17T06:24:38.271Z,95.54
2017-01-17T06:25:18.914Z,95.64
2017-01-17T06:25:59.551Z,95.64
2017-01-17T06:26:40.206Z,95.64
2017-01-17T06:27:20.857Z,95.73
2017-01-17T06:28:01.510Z,95.83
2017-01-17T06:28:42.162Z,95.64
2017-01-17T06:29:22.873Z,95.92
2017-01-17T06:30:03.570Z,95.73
2017-01-17T06:30:44.249Z,95.45
2017-01-17T06:31:24.894Z,95.64
2017-01-17T06:32:05.532Z,95.54
2017-01-17T06:32:46.206Z,96.01
2017-01-17T06:33:26.859Z,96.01
2017-01-17T06:34:07.494Z,95.64
2017-01-17T06:34:48.164Z,95.45
2017-01-17T06:35:28.808Z,95.45
2017-01-17T06:36:09.472Z,95.54
2017-01-17T06:36:50.118Z,95.45
2017-01-17T06:37:30.753Z,95.54
2017-01-17T06:38:11.431Z,95.73
2017-01-17T06:38:52.036Z,96.01
2017-01-17T06:39:32.710Z,95.83
2017-01-17T06:40:13.260Z,95.73
2017-01-17T06:40:53.913Z,95.64
2017-01-17T06:41:34.550Z,95.54
2017-01-17T06:42:15.123Z,95.73
2017-01-17T06:42:55.786Z,96.01
2017-01-17T06:43:36.380Z,95.73
2017-01-17T06:44:16.970Z,95.64
2017-01-17T06:44:57.768Z,95.73
2017-01-17T06:45:38.357Z,95.54
2017-01-17T06:46:19.037Z,95.73
2017-01-17T06:46:59.712Z,95.73
2017-01-17T06:47:40.338Z,95.73
2017-01-17T06:48:20.995Z,96.01
2017-01-17T06:49:01.672Z,95.83
2017-01-17T06:49:42.299Z,96.01
2017-01-17T06:50:22.976Z,96.58
2017-01-17T06:51:03.632Z,96.3
2017-01-17T06:51:44.273Z,96.39
2017-01-17T06:52:24.861Z,96.39
2017-01-17T06:53:05.517Z,96.3
2017-01-17T06:53:46.165Z,96.3
2017-01-17T06:54:26.782Z,96.2
2017-01-17T06:55:07.422Z,96.2
2017-01-17T06:55:48.071Z,96.67
2017-01-17T06:56:28.643Z,96.48
2017-01-17T06:57:09.314Z,96.67
2017-01-17T06:57:49.945Z,96.48
2017-01-17T06:58:30.597Z,96.67
2017-01-17T06:59:11.251Z,96.67
2017-01-17T06:59:51.899Z,96.58
2017-01-17T07:00:32.563Z,96.58
2017-01-17T07:01:13.193Z,96.58
2017-01-17T07:01:53.872Z,96.3
2017-01-17T07:02:34.521Z,96.3
2017-01-17T07:03:15.168Z,96.58
2017-01-17T07:03:55.832Z,96.48
2017-01-17T07:04:36.475Z,96.39
2017-01-17T07:05:17.137Z,96.39
2017-01-17T07:05:57.791Z,96.58
2017-01-17T07:06:38.425Z,96.67
2017-01-17T07:07:19.063Z,96.58
2017-01-17T07:07:59.713Z,96.58
2017-01-17T07:08:40.281Z,96.39
2017-01-17T07:09:20.945Z,96.86
2017-01-17T07:10:01.600Z,96.86
2017-01-17T07:10:42.243Z,96.86
2017-01-17T07:11:22.902Z,97.33
2017-01-17T07:12:03.539Z,96.77
2017-01-17T07:12:44.210Z,96.2
2017-01-17T07:13:24.892Z,97.05
2017-01-17T07:14:05.526Z,97.14
2017-01-17T07:14:46.078Z,97.24
2017-01-17T07:15:26.741Z,97.24
2017-01-17T07:16:07.352Z,97.24
2017-01-17T07:16:47.920Z,97.24
2017-01-17T07:17:28.592Z,97.33
2017-01-17T07:18:09.209Z,96.77
2017-01-17T07:18:49.770Z,96.81
2017-01-17T07:19:30.430Z,97
2017-01-17T07:20:11.084Z,96.95
2017-01-17T07:20:51.749Z,97.05
2017-01-17T07:21:32.316Z,97.14
2017-01-17T07:22:12.937Z,97.19
2017-01-17T07:22:53.591Z,96.91
2017-01-17T07:23:34.243Z,97.1
2017-01-17T07:24:14.873Z,97.1
2017-01-17T07:24:55.448Z,97.1
2017-01-17T07:25:36.103Z,97
2017-01-17T07:26:16.718Z,96.91
2017-01-17T07:26:57.302Z,97.1
2017-01-17T07:27:37.940Z,97.1
2017-01-17T07:28:18.686Z,97
2017-01-17T07:28:59.341Z,97.19
2017-01-17T07:29:40.002Z,97.19
2017-01-17T07:30:20.647Z,96.91
2017-01-17T07:31:01.298Z,96.91
2017-01-17T07:31:41.977Z,97.1
2017-01-17T07:32:22.613Z,97
2017-01-17T07:33:03.776Z,97.1
2017-01-17T07:33:44.338Z,97.1
2017-01-17T07:34:24.896Z,96.81
2017-01-17T07:35:05.556Z,96.91
2017-01-17T07:35:48.224Z,96.81
2017-01-17T07:36:28.801Z,97
2017-01-17T07:37:09.441Z,96.81
2017-01-17T07:37:50.080Z,96.91
2017-01-17T07:38:30.637Z,96.91
2017-01-17T07:39:11.310Z,97.29
2017-01-17T07:39:51.989Z,97.29
2017-01-17T07:40:32.566Z,97.48
2017-01-17T07:41:13.162Z,97.57
2017-01-17T07:41:53.751Z,97.57
2017-01-17T07:42:34.328Z,97.38
2017-01-17T07:43:14.910Z,97
2017-01-17T07:43:56.570Z,97
2017-01-17T07:44:37.152Z,97.38
2017-01-17T07:45:17.830Z,97.19
2017-01-17T07:45:58.498Z,97.19
2017-01-17T07:46:39.189Z,97
2017-01-17T07:47:19.772Z,97
2017-01-17T07:48:03.025Z,97
2017-01-17T07:48:43.708Z,97.19
2017-01-17T07:49:24.277Z,97.38
2017-01-17T07:50:04.931Z,97.1
2017-01-17T07:50:45.524Z,97.57
2017-01-17T07:51:26.210Z,97.19
2017-01-17T07:52:06.798Z,97.38
2017-01-17T07:52:47.442Z,97.29
2017-01-17T07:53:28.174Z,97.19
2017-01-17T07:54:08.735Z,97.48
2017-01-17T07:54:49.382Z,97.19
2017-01-17T07:55:30.023Z,97.29
2017-01-17T07:56:10.603Z,97.19
2017-01-17T07:56:51.267Z,97.19
2017-01-17T07:57:31.885Z,97.38
2017-01-17T07:58:12.479Z,97.38
2017-01-17T07:58:54.136Z,97.19
2017-01-17T07:59:34.749Z,97.19
2017-01-17T08:00:15.412Z,96.91
2017-01-17T08:00:55.992Z,97.95
2017-01-17T08:01:36.639Z,96.91
2017-01-17T08:02:17.242Z,96.81
2017-01-17T08:02:57.808Z,98.04
2017-01-17T08:03:38.467Z,96.91
2017-01-17T08:04:19.039Z,97.76
2017-01-17T08:04:59.701Z,98.04
2017-01-17T08:05:40.300Z,98.04
2017-01-17T08:06:20.980Z,97.67
2017-01-17T08:07:01.563Z,97.67
2017-01-17T08:07:42.215Z,97.67
2017-01-17T08:08:22.820Z,97.67
2017-01-17T08:09:03.493Z,97.57
2017-01-17T08:09:44.088Z,97.57
2017-01-17T08:10:24.727Z,97.67
2017-01-17T08:11:05.331Z,97.67
2017-01-17T08:11:45.999Z,97.67
2017-01-17T08:12:26.717Z,97.67
2017-01-17T08:13:07.697Z,97.57
2017-01-17T08:13:53.436Z,97.57
2017-01-17T08:14:36.439Z,97.76
2017-01-17T08:15:17.399Z,97.57
2017-01-17T08:15:58.528Z,97.67
2017-01-17T08:16:39.893Z,97.57
2017-01-17T08:17:20.812Z,97.76
2017-01-17T08:18:01.877Z,97.85
2017-01-17T08:18:43.882Z,97
2017-01-17T08:19:25.213Z,97.76
2017-01-17T08:20:06.475Z,97.76
2017-01-17T08:20:47.181Z,97.19
2017-01-17T08:21:27.911Z,97.67
2017-01-17T08:22:08.563Z,97.67
2017-01-17T08:22:49.143Z,96.81
2017-01-17T08:23:29.710Z,96.81
2017-01-17T08:24:10.367Z,97.19
2017-01-17T08:24:50.997Z,97.19
2017-01-17T08:25:31.549Z,97.19
2017-01-17T08:26:12.196Z,97.1
2017-01-17T08:26:52.804Z,97.19
2017-01-17T08:27:33.376Z,97.19
2017-01-17T08:28:14.054Z,97.1
2017-01-17T08:28:54.715Z,97.1
2017-01-17T08:29:35.359Z,97.38
2017-01-17T08:30:16.027Z,97.38
2017-01-17T08:30:56.664Z,97.1
2017-01-17T08:31:37.320Z,97.67
2017-01-17T08:32:17.885Z,97.1
2017-01-17T08:32:58.522Z,97.29
2017-01-17T08:33:39.097Z,97.19
2017-01-17T08:34:19.755Z,97.29
2017-01-17T08:35:00.404Z,97.57
2017-01-17T08:35:41.056Z,97.57
2017-01-17T08:36:21.708Z,97.48
2017-01-17T08:37:02.361Z,97
2017-01-17T08:37:43.000Z,97.29
2017-01-17T08:38:23.672Z,97
2017-01-17T08:39:04.263Z,97.1
2017-01-17T08:39:44.947Z,97
2017-01-17T08:40:25.525Z,97
2017-01-17T08:41:06.189Z,96.91
2017-01-17T08:41:46.776Z,97
2017-01-17T08:42:27.465Z,96.91
2017-01-17T08:43:08.038Z,96.81
2017-01-17T08:43:48.675Z,97.1
2017-01-17T08:44:29.286Z,97.1
2017-01-17T08:45:09.965Z,97.1
2017-01-17T08:45:50.554Z,97.1
2017-01-17T08:46:31.243Z,96.81